createdAt,value
2018-12-31T00:00:14.942Z,19.63
2018-12-31T00:06:58.436Z,15.20
2018-12-31T00:13:41.849Z,18.93
2018-12-31T00:20:25.266Z,14.93
2018-12-31T00:27:08.678Z,15.13
2018-12-31T00:33:52.089Z,18.70
2018-12-31T00:40:35.511Z,16.83
2018-12-31T00:47:18.953Z,15.13
2018-12-31T00:54:02.368Z,16.13
2018-12-31T01:00:46.026Z,18.30
2018-12-31T01:07:29.446Z,19.90
2018-12-31T01:14:12.858Z,16.50
2018-12-31T01:20:56.270Z,17.03
2018-12-31T01:27:39.689Z,18.87
2018-12-31T01:34:23.109Z,18.50
2018-12-31T01:41:06.534Z,22.37
2018-12-31T01:47:50.001Z,20.40
2018-12-31T01:54:33.442Z,19.50
2018-12-31T02:01:16.877Z,24.00
2018-12-31T02:08:00.307Z,18.93
2018-12-31T02:14:43.729Z,27.30
2018-12-31T02:21:27.189Z,23.43
2018-12-31T02:28:10.641Z,22.03
2018-12-31T02:34:54.074Z,18.57
2018-12-31T02:41:37.512Z,18.87
2018-12-31T02:48:20.950Z,22.07
2018-12-31T02:55:04.430Z,17.97
2018-12-31T03:01:47.866Z,16.53
2018-12-31T03:08:31.306Z,17.00
2018-12-31T03:15:14.741Z,15.57
2018-12-31T03:21:58.158Z,19.77
2018-12-31T03:28:41.582Z,17.27
2018-12-31T03:35:25.013Z,18.17
2018-12-31T03:42:08.468Z,18.10
2018-12-31T03:48:51.906Z,19.53
2018-12-31T03:55:35.328Z,15.43
2018-12-31T04:02:18.745Z,13.83
2018-12-31T04:09:02.194Z,17.33
2018-12-31T04:15:45.642Z,17.93
2018-12-31T04:22:29.062Z,13.80
2018-12-31T04:29:12.517Z,14.90
2018-12-31T04:35:55.941Z,17.20
2018-12-31T04:42:39.368Z,16.12
2018-12-31T04:49:22.794Z,13.50
2018-12-31T04:56:06.258Z,17.53
2018-12-31T05:02:49.690Z,19.73
2018-12-31T05:09:33.156Z,13.60
2018-12-31T05:16:16.593Z,16.83
2018-12-31T05:23:00.014Z,18.60
2018-12-31T05:29:43.442Z,14.30
2018-12-31T05:36:26.857Z,12.83
2018-12-31T05:43:10.293Z,12.23
2018-12-31T05:49:53.869Z,12.03
2018-12-31T05:56:37.285Z,10.70
2018-12-31T06:03:20.721Z,12.30
2018-12-31T06:10:04.211Z,11.33
2018-12-31T06:16:47.640Z,10.13
2018-12-31T06:23:31.062Z,11.00
2018-12-31T06:30:14.482Z,12.33
2018-12-31T06:36:57.910Z,10.03
2018-12-31T06:43:41.337Z,12.07
2018-12-31T06:50:24.794Z,9.70
2018-12-31T06:57:08.222Z,10.67
2018-12-31T07:03:51.680Z,10.47
2018-12-31T07:10:35.112Z,13.93
2018-12-31T07:17:18.541Z,13.07
2018-12-31T07:24:01.970Z,13.50
2018-12-31T07:30:45.422Z,15.27
2018-12-31T07:37:28.845Z,16.33
2018-12-31T07:44:12.306Z,12.47
2018-12-31T07:50:55.757Z,8.30
2018-12-31T07:57:39.205Z,13.50
2018-12-31T08:04:22.661Z,11.07
2018-12-31T08:11:06.114Z,14.00
2018-12-31T08:17:49.598Z,13.90
2018-12-31T08:24:33.055Z,10.63
2018-12-31T08:31:16.508Z,11.37
2018-12-31T08:37:59.969Z,13.30
2018-12-31T08:44:43.429Z,11.80
2018-12-31T08:51:26.878Z,12.37
2018-12-31T08:58:10.353Z,10.70
2018-12-31T09:04:54.317Z,9.50
2018-12-31T09:11:37.853Z,11.33
2018-12-31T09:18:21.313Z,10.90
2018-12-31T09:25:05.022Z,11.67
2018-12-31T09:31:51.280Z,13.10
2018-12-31T09:38:34.771Z,12.20
2018-12-31T09:45:18.234Z,9.83
2018-12-31T09:52:01.710Z,9.37
2018-12-31T09:58:47.164Z,6.30
2018-12-31T10:05:30.608Z,6.03
2018-12-31T10:12:14.049Z,7.53
2018-12-31T10:18:57.484Z,6.33
2018-12-31T10:25:40.945Z,7.13
2018-12-31T10:32:24.382Z,4.40
2018-12-31T10:39:07.881Z,5.77
2018-12-31T10:45:51.317Z,7.43
2018-12-31T10:52:34.753Z,4.97
2018-12-31T10:59:18.213Z,5.73
2018-12-31T11:06:03.645Z,4.60
2018-12-31T11:12:47.081Z,6.13
2018-12-31T11:19:33.569Z,3.43
2018-12-31T11:26:16.139Z,5.27
2018-12-31T11:32:59.574Z,4.00
2018-12-31T11:39:43.021Z,3.57
2018-12-31T11:46:26.469Z,3.77
2018-12-31T11:53:09.937Z,3.60
2018-12-31T11:59:53.413Z,6.00
2018-12-31T12:06:36.936Z,5.97
2018-12-31T12:13:20.370Z,4.73
2018-12-31T12:20:03.826Z,5.47
2018-12-31T12:26:47.351Z,5.43
2018-12-31T12:33:30.834Z,5.63
2018-12-31T12:40:14.273Z,4.70
2018-12-31T12:46:57.714Z,6.10
2018-12-31T12:53:41.181Z,6.93
2018-12-31T13:00:24.625Z,8.30
2018-12-31T13:07:08.070Z,4.73
2018-12-31T13:13:51.526Z,4.77
2018-12-31T13:20:34.969Z,5.83
2018-12-31T13:27:18.421Z,39.90
2018-12-31T13:34:01.877Z,4.57
2018-12-31T13:40:45.325Z,4.77
2018-12-31T13:47:28.773Z,4.57
2018-12-31T13:54:12.281Z,4.70
2018-12-31T14:00:55.732Z,6.40
2018-12-31T14:07:39.181Z,5.20
2018-12-31T14:14:23.090Z,6.63
2018-12-31T14:21:06.542Z,12.13
2018-12-31T14:27:50.032Z,5.90
2018-12-31T14:34:33.485Z,4.57
2018-12-31T14:48:08.742Z,5.20
2018-12-31T14:54:52.201Z,7.17
2018-12-31T15:01:35.965Z,8.30
2018-12-31T15:08:19.405Z,8.37
2018-12-31T15:15:02.851Z,9.80
2018-12-31T15:21:46.294Z,10.40
2018-12-31T15:28:29.869Z,8.73
2018-12-31T15:35:13.298Z,7.63
2018-12-31T15:41:56.775Z,8.00
2018-12-31T15:48:40.257Z,9.10
2018-12-31T15:55:23.701Z,10.17
2018-12-31T16:02:07.149Z,10.43
2018-12-31T16:08:50.593Z,9.53
2018-12-31T16:15:34.041Z,12.80
2018-12-31T16:22:17.499Z,13.40
2018-12-31T16:29:00.982Z,17.03
2018-12-31T16:35:44.440Z,12.53
2018-12-31T16:42:27.889Z,13.47
2018-12-31T16:49:11.341Z,16.53
2018-12-31T16:55:54.798Z,13.70
2018-12-31T17:02:38.282Z,13.70
2018-12-31T17:09:21.737Z,16.97
2018-12-31T17:16:05.188Z,16.90
2018-12-31T17:22:48.690Z,17.20
2018-12-31T17:29:32.189Z,17.10
2018-12-31T17:36:15.661Z,18.47
2018-12-31T17:42:59.114Z,22.43
2018-12-31T17:49:42.597Z,19.13
2018-12-31T17:56:26.063Z,16.97
2018-12-31T18:03:09.549Z,17.57
2018-12-31T18:09:52.993Z,20.67
2018-12-31T18:16:36.533Z,21.83
2018-12-31T18:23:20.833Z,41.13
2018-12-31T18:30:04.708Z,19.53
2018-12-31T18:36:48.150Z,19.30
2018-12-31T18:43:31.599Z,20.40
2018-12-31T18:50:15.090Z,21.27
2018-12-31T18:56:58.555Z,22.07
2018-12-31T19:03:42.009Z,32.37
2018-12-31T19:10:25.443Z,37.53
2018-12-31T19:17:09.954Z,41.70
2018-12-31T19:23:53.401Z,41.47
2018-12-31T19:30:36.841Z,29.93
2018-12-31T19:37:20.362Z,25.60
2018-12-31T19:44:03.801Z,30.13
2018-12-31T19:50:47.273Z,36.80
2018-12-31T19:57:30.781Z,46.07
2018-12-31T20:04:14.218Z,56.90
2018-12-31T20:10:57.673Z,52.50
2018-12-31T20:17:42.851Z,62.50
2018-12-31T20:24:26.315Z,62.97
2018-12-31T20:31:09.769Z,51.63
2018-12-31T20:37:53.233Z,66.63
2018-12-31T20:44:36.684Z,61.83
2018-12-31T20:51:20.150Z,395.80
2018-12-31T20:58:03.958Z,101.00
2018-12-31T21:04:47.409Z,143.80
2018-12-31T21:11:30.906Z,140.90
2018-12-31T21:18:15.277Z,190.10
2018-12-31T21:24:58.752Z,130.93
2018-12-31T21:31:42.239Z,139.40
2018-12-31T21:38:25.676Z,147.03
2018-12-31T21:45:09.130Z,110.37
2018-12-31T21:51:52.585Z,112.80
2018-12-31T21:58:36.041Z,143.50
2018-12-31T22:05:19.774Z,129.87
2018-12-31T22:12:03.254Z,99.30
2018-12-31T22:18:47.617Z,113.17
2018-12-31T22:25:31.057Z,119.43
2018-12-31T22:32:14.493Z,151.43
2018-12-31T22:38:57.933Z,167.93
2018-12-31T22:45:41.372Z,199.20
2018-12-31T22:52:24.824Z,149.97
2018-12-31T22:59:08.271Z,150.10
2018-12-31T23:05:51.731Z,238.97
2018-12-31T23:12:35.189Z,268.50
2018-12-31T23:19:19.609Z,679.70
2018-12-31T23:26:03.093Z,598.47
2018-12-31T23:32:46.560Z,711.70
2018-12-31T23:39:30.017Z,690.20
2018-12-31T23:46:13.469Z,673.30
2018-12-31T23:52:56.939Z,654.73
2018-12-31T23:59:40.405Z,698.87
